Milltown, Kentucky
Current Conditions -  °F | °C
As of 3:15 PM on Wednesday 26 Nov 2014 (Local Time) from KGLW Reporting Station
Clear Clear  
Wind Chill: 44°   Ceiling: Unl
Heat Index: 44°   Visibility: 10mi
Dew Point: 25°   Wind: 3mph
Humidity: 48%   Direction: 220°SW
Pressure: 30.02"   Gusts: NA
Location:  37.11°N, 85.46°W
Report Text: KGLW 262115Z AUTO 22003KT 10SM CLR 06/M04 A3002 RMK AO2 T00641039
Loading
Personal Weather Stations






























Interactive Weather Map New forecast layout! Learn more

10-Day Weather Forecast

Advertisements
Track Severe Weather on mobile